createdAt,value
2023-01-02T00:09:50.544Z,43.08
2023-01-02T00:19:52.084Z,43.00
2023-01-02T00:29:53.473Z,42.97
2023-01-02T00:39:54.842Z,43.11
2023-01-02T00:49:56.223Z,43.18
2023-01-02T00:59:57.663Z,43.00
2023-01-02T01:09:59.040Z,43.11
2023-01-02T01:20:00.423Z,43.03
2023-01-02T01:30:02.117Z,43.00
2023-01-02T01:40:03.696Z,43.05
2023-01-02T01:50:10.760Z,43.07
2023-01-02T02:00:12.629Z,42.85
2023-01-02T02:10:14.158Z,42.89
2023-01-02T02:20:34.511Z,42.91
2023-01-02T02:30:43.231Z,42.75
2023-01-02T02:40:59.741Z,42.84
2023-01-02T02:51:04.373Z,42.84
2023-01-02T03:01:14.049Z,42.85
2023-01-02T03:11:15.563Z,42.69
2023-01-02T03:21:41.265Z,42.88
2023-01-02T03:31:43.317Z,42.75
2023-01-02T03:42:05.787Z,42.84
2023-01-02T03:52:07.205Z,42.65
2023-01-02T04:02:35.033Z,42.69
2023-01-02T04:12:36.973Z,42.70
2023-01-02T04:23:06.050Z,42.72
2023-01-02T04:33:08.761Z,42.63
2023-01-02T04:43:20.882Z,42.61
2023-01-02T04:53:22.276Z,42.70
2023-01-02T05:03:23.668Z,42.72
2023-01-02T05:13:25.066Z,42.67
2023-01-02T05:23:45.198Z,42.62
2023-01-02T05:33:51.517Z,42.46
2023-01-02T05:43:54.280Z,42.19
2023-01-02T05:53:55.722Z,41.89
2023-01-02T06:03:58.550Z,41.80
2023-01-02T06:14:00.048Z,41.82
2023-01-02T06:24:01.603Z,41.84
2023-01-02T06:34:03.818Z,41.98
2023-01-02T06:44:05.440Z,42.28
2023-01-02T06:54:06.996Z,42.23
2023-01-02T07:04:14.880Z,42.41
2023-01-02T07:14:16.266Z,42.42
2023-01-02T07:24:17.662Z,42.62
2023-01-02T07:34:19.145Z,42.56
2023-01-02T07:44:20.537Z,42.58
2023-01-02T07:54:21.921Z,42.61
2023-01-02T08:04:23.343Z,42.58
2023-01-02T08:14:24.758Z,42.62
2023-01-02T08:24:26.135Z,42.81
2023-01-02T08:34:27.555Z,43.23
2023-01-02T08:44:28.948Z,43.84
2023-01-02T08:54:30.710Z,43.58
2023-01-02T09:04:32.104Z,43.77
2023-01-02T09:14:33.482Z,43.57
2023-01-02T09:24:34.865Z,43.49
2023-01-02T09:34:36.330Z,43.48
2023-01-02T09:44:56.917Z,43.41
2023-01-02T09:54:58.301Z,43.46
2023-01-02T10:05:27.972Z,43.45
2023-01-02T10:15:29.213Z,43.56
2023-01-02T10:25:36.154Z,43.51
2023-01-02T10:35:44.636Z,43.42
2023-01-02T10:45:46.020Z,43.51
2023-01-02T10:55:47.590Z,43.53
2023-01-02T11:05:53.762Z,43.27
2023-01-02T11:16:01.660Z,43.32
2023-01-02T11:26:03.580Z,43.37
2023-01-02T11:36:04.826Z,43.41
2023-01-02T11:46:10.377Z,43.37
2023-01-02T11:56:30.579Z,43.36
2023-01-02T12:06:52.127Z,43.39
2023-01-02T12:17:21.370Z,43.30
2023-01-02T12:27:53.230Z,43.32
2023-01-02T12:37:56.163Z,43.16
2023-01-02T12:48:15.752Z,43.29
2023-01-02T12:58:29.549Z,43.27
2023-01-02T13:08:50.753Z,43.06
2023-01-02T13:19:07.077Z,43.32
2023-01-02T13:29:08.302Z,43.25
2023-01-02T13:39:25.781Z,43.12
2023-01-02T13:49:27.304Z,43.21
2023-01-02T13:59:42.765Z,43.39
2023-01-02T14:10:09.069Z,43.27
2023-01-02T14:20:21.947Z,43.44
2023-01-02T14:30:31.929Z,43.38
2023-01-02T14:40:41.279Z,43.44
2023-01-02T14:50:43.254Z,43.48
2023-01-02T15:00:45.388Z,43.58
2023-01-02T15:10:57.521Z,43.45
2023-01-02T15:21:09.591Z,43.67
2023-01-02T15:31:12.689Z,43.68
2023-01-02T15:41:17.866Z,43.71
2023-01-02T15:51:19.928Z,43.77
2023-01-02T16:01:44.706Z,43.83
2023-01-02T16:11:52.069Z,43.83
2023-01-02T16:21:59.887Z,43.99
2023-01-02T16:32:01.726Z,43.88
2023-01-02T16:42:21.952Z,44.00
2023-01-02T16:52:23.495Z,44.08
2023-01-02T17:02:24.921Z,44.07
2023-01-02T17:12:26.639Z,44.12
2023-01-02T17:22:28.289Z,44.14
2023-01-02T17:32:30.418Z,44.14
2023-01-02T17:42:31.952Z,44.15
2023-01-02T17:52:33.511Z,44.14
2023-01-02T18:02:35.093Z,44.28
2023-01-02T18:12:38.136Z,44.27
2023-01-02T18:22:46.070Z,44.23
2023-01-02T18:32:50.649Z,44.33
2023-01-02T18:42:55.178Z,44.24
2023-01-02T18:52:56.969Z,44.41
2023-01-02T19:03:07.524Z,44.48
2023-01-02T19:13:23.931Z,44.42
2023-01-02T19:23:29.134Z,44.41
2023-01-02T19:33:38.057Z,44.35
2023-01-02T19:43:39.445Z,44.46
2023-01-02T19:53:40.823Z,44.46
2023-01-02T20:03:42.362Z,44.52
2023-01-02T20:13:43.805Z,44.49
2023-01-02T20:23:45.329Z,44.61
2023-01-02T20:33:46.877Z,44.52
2023-01-02T20:43:48.441Z,44.53
2023-01-02T20:53:50.049Z,44.51
2023-01-02T21:03:51.539Z,44.51
2023-01-02T21:13:52.949Z,44.58
2023-01-02T21:23:54.372Z,44.66
2023-01-02T21:33:56.099Z,44.75
2023-01-02T21:43:57.608Z,44.79
2023-01-02T21:53:59.129Z,44.74
2023-01-02T22:04:00.583Z,44.74
2023-01-02T22:14:02.147Z,44.87
2023-01-02T22:24:03.656Z,44.84
2023-01-02T22:34:05.219Z,45.02
2023-01-02T22:44:11.119Z,44.84
2023-01-02T22:54:16.548Z,44.82
2023-01-02T23:04:19.915Z,44.78
2023-01-02T23:14:21.582Z,44.79
2023-01-02T23:24:29.302Z,44.78
2023-01-02T23:34:30.828Z,44.67
2023-01-02T23:44:32.246Z,44.69
2023-01-02T23:54:33.638Z,44.80
